createdAt,value
2022-11-18T00:00:26.046Z,37.15
2022-11-18T00:03:28.078Z,26.15
2022-11-18T00:06:31.064Z,24.27
2022-11-18T00:09:33.074Z,25.50
2022-11-18T00:12:53.488Z,24.17
2022-11-18T00:16:03.057Z,29.50
2022-11-18T00:19:05.481Z,25.20
2022-11-18T00:22:11.225Z,30.30
2022-11-18T00:25:13.315Z,35.78
2022-11-18T00:28:15.301Z,25.30
2022-11-18T00:31:17.402Z,28.67
2022-11-18T00:34:19.614Z,27.15
2022-11-18T00:37:21.672Z,19.33
2022-11-18T00:40:23.681Z,17.15
2022-11-18T00:43:25.717Z,19.15
2022-11-18T00:46:27.725Z,24.35
2022-11-18T00:49:29.851Z,22.02
2022-11-18T00:52:31.882Z,25.92
2022-11-18T00:55:33.956Z,22.00
2022-11-18T00:58:37.173Z,26.58
2022-11-18T01:01:39.269Z,21.90
2022-11-18T01:04:41.409Z,18.85
2022-11-18T01:07:43.531Z,17.67
2022-11-18T01:10:46.977Z,24.02
2022-11-18T01:13:54.840Z,23.55
2022-11-18T01:16:57.335Z,16.45
2022-11-18T01:19:59.994Z,18.88
2022-11-18T01:26:09.860Z,14.32
2022-11-18T01:29:12.027Z,19.60
2022-11-18T01:32:29.562Z,20.58
2022-11-18T01:35:36.691Z,16.70
2022-11-18T01:38:38.747Z,25.75
2022-11-18T01:41:40.788Z,16.45
2022-11-18T01:44:51.934Z,16.35
2022-11-18T01:48:11.726Z,22.45
2022-11-18T01:51:16.926Z,19.30
2022-11-18T01:54:25.409Z,23.90
2022-11-18T01:57:30.730Z,25.20
2022-11-18T02:00:32.807Z,16.05
2022-11-18T02:03:35.562Z,21.30
2022-11-18T02:06:37.770Z,25.52
2022-11-18T02:09:40.078Z,22.30
2022-11-18T02:12:42.181Z,22.73
2022-11-18T02:15:52.223Z,20.77
2022-11-18T02:19:01.111Z,18.90
2022-11-18T02:22:24.898Z,20.20
2022-11-18T02:25:59.285Z,23.85
2022-11-18T02:29:07.978Z,19.10
2022-11-18T02:32:25.154Z,14.77
2022-11-18T02:35:33.792Z,20.42
2022-11-18T02:38:43.333Z,23.92
2022-11-18T02:41:48.065Z,28.15
2022-11-18T02:44:56.621Z,19.33
2022-11-18T02:48:03.949Z,24.27
2022-11-18T02:51:08.586Z,19.23
2022-11-18T02:54:13.601Z,17.60
2022-11-18T02:57:16.200Z,17.50
2022-11-18T03:00:18.348Z,21.80
2022-11-18T03:03:40.608Z,16.42
2022-11-18T03:06:48.511Z,18.08
2022-11-18T03:09:52.606Z,20.10
2022-11-18T03:13:15.455Z,24.30
2022-11-18T03:16:25.585Z,20.17
2022-11-18T03:19:32.740Z,18.65
2022-11-18T03:22:46.829Z,20.35
2022-11-18T03:25:54.785Z,19.55
2022-11-18T03:29:04.519Z,18.70
2022-11-18T03:32:12.273Z,26.20
2022-11-18T03:35:19.107Z,21.20
2022-11-18T03:38:30.442Z,26.10
2022-11-18T03:41:38.640Z,19.52
2022-11-18T03:44:47.088Z,16.30
2022-11-18T03:48:01.229Z,15.32
2022-11-18T03:51:09.181Z,29.50
2022-11-18T03:54:33.935Z,20.00
2022-11-18T03:57:56.350Z,30.17
2022-11-18T04:01:27.598Z,27.85
2022-11-18T04:04:30.039Z,21.33
2022-11-18T04:07:51.036Z,19.55
2022-11-18T04:11:31.419Z,23.83
2022-11-18T04:14:38.862Z,17.92
2022-11-18T04:17:42.981Z,18.10
2022-11-18T04:20:45.161Z,16.92
2022-11-18T04:23:47.217Z,20.38
2022-11-18T04:26:49.290Z,17.05
2022-11-18T04:29:51.344Z,19.38
2022-11-18T04:32:53.429Z,15.80
2022-11-18T04:35:55.522Z,20.95
2022-11-18T04:38:57.793Z,19.88
2022-11-18T04:41:59.901Z,23.90
2022-11-18T04:45:02.338Z,19.35
2022-11-18T04:48:04.583Z,16.83
2022-11-18T04:51:06.868Z,12.70
2022-11-18T04:54:09.781Z,12.60
2022-11-18T04:57:12.049Z,12.68
2022-11-18T05:00:14.659Z,14.40
2022-11-18T05:03:16.678Z,13.30
2022-11-18T05:06:18.785Z,10.73
2022-11-18T05:09:21.244Z,13.48
2022-11-18T05:12:42.268Z,12.48
2022-11-18T05:15:44.300Z,12.90
2022-11-18T05:18:46.381Z,12.95
2022-11-18T05:21:48.802Z,11.52
2022-11-18T05:24:50.955Z,11.43
2022-11-18T05:27:53.242Z,12.25
2022-11-18T05:30:55.174Z,12.63
2022-11-18T05:33:57.174Z,12.63
2022-11-18T05:36:59.721Z,11.52
2022-11-18T05:40:01.705Z,12.82
2022-11-18T05:43:12.668Z,12.30
2022-11-18T05:46:14.614Z,12.77
2022-11-18T05:49:17.098Z,12.05
2022-11-18T05:52:19.289Z,12.18
2022-11-18T05:55:24.174Z,11.50
2022-11-18T05:58:26.930Z,10.40
2022-11-18T06:01:35.230Z,10.48
2022-11-18T06:04:49.096Z,10.82
2022-11-18T06:07:51.224Z,10.75
2022-11-18T06:10:53.783Z,10.65
2022-11-18T06:14:04.244Z,10.60
2022-11-18T06:17:10.612Z,10.82
2022-11-18T06:20:12.915Z,11.82
2022-11-18T06:23:15.248Z,12.82
2022-11-18T06:26:17.649Z,16.00
2022-11-18T06:29:27.290Z,13.52
2022-11-18T06:32:30.112Z,15.23
2022-11-18T06:35:32.112Z,13.43
2022-11-18T06:38:34.217Z,12.00
2022-11-18T06:41:36.289Z,12.32
2022-11-18T06:44:38.356Z,11.50
2022-11-18T06:47:40.517Z,11.05
2022-11-18T06:50:42.487Z,10.65
2022-11-18T06:53:44.629Z,10.90
2022-11-18T06:56:47.203Z,10.93
2022-11-18T06:59:49.252Z,10.27
2022-11-18T07:02:51.238Z,10.75
2022-11-18T07:05:53.324Z,10.68
2022-11-18T07:08:55.644Z,10.48
2022-11-18T07:11:57.644Z,10.32
2022-11-18T07:14:59.654Z,11.30
2022-11-18T07:18:01.675Z,10.23
2022-11-18T07:21:28.111Z,9.90
2022-11-18T07:24:30.085Z,10.52
2022-11-18T07:27:32.124Z,11.25
2022-11-18T07:30:34.114Z,10.38
2022-11-18T07:33:37.411Z,11.23
2022-11-18T07:36:39.750Z,10.57
2022-11-18T07:39:41.914Z,11.45
2022-11-18T07:42:43.934Z,9.68
2022-11-18T07:45:45.944Z,10.35
2022-11-18T07:48:51.002Z,11.55
2022-11-18T07:51:53.771Z,11.10
2022-11-18T07:57:57.959Z,11.27
2022-11-18T08:01:06.299Z,10.65
2022-11-18T08:04:10.941Z,11.50
2022-11-18T08:07:13.058Z,12.05
2022-11-18T08:10:15.510Z,12.60
2022-11-18T08:13:17.536Z,71.95
2022-11-18T08:16:22.888Z,97.78
2022-11-18T08:19:24.990Z,68.47
2022-11-18T08:22:26.976Z,67.47
2022-11-18T08:25:29.522Z,20.83
2022-11-18T08:28:32.149Z,13.73
2022-11-18T08:34:36.282Z,11.32
2022-11-18T08:37:38.492Z,12.48
2022-11-18T08:40:45.714Z,12.63
2022-11-18T08:43:47.809Z,12.70
2022-11-18T08:46:49.935Z,17.15
2022-11-18T08:49:52.267Z,12.95
2022-11-18T08:52:54.462Z,9.25
2022-11-18T08:55:57.615Z,9.85
2022-11-18T08:58:59.602Z,9.95
2022-11-18T09:02:01.766Z,9.88
2022-11-18T09:05:04.036Z,7.40
2022-11-18T09:08:06.273Z,8.40
2022-11-18T09:11:13.841Z,10.82
2022-11-18T09:17:37.875Z,11.32
2022-11-18T09:20:39.958Z,8.13
2022-11-18T09:23:42.013Z,8.43
2022-11-18T09:26:44.337Z,8.20
2022-11-18T09:29:46.597Z,8.10
2022-11-18T09:35:52.442Z,14.68
2022-11-18T09:38:54.576Z,28.45
2022-11-18T09:42:06.339Z,21.42
2022-11-18T09:45:30.283Z,14.00
2022-11-18T09:48:56.274Z,14.90
2022-11-18T09:52:02.702Z,13.85
2022-11-18T09:55:15.596Z,14.13
2022-11-18T09:58:38.690Z,14.05
2022-11-18T10:01:42.010Z,11.73
2022-11-18T10:04:44.202Z,10.48
2022-11-18T10:07:54.644Z,24.80
2022-11-18T10:11:02.413Z,16.52
2022-11-18T10:14:13.697Z,13.27
2022-11-18T10:17:50.529Z,11.50
2022-11-18T10:21:00.108Z,10.32
2022-11-18T10:24:11.025Z,9.95
2022-11-18T10:27:15.698Z,7.80
2022-11-18T10:30:23.408Z,6.95
2022-11-18T10:33:27.809Z,7.45
2022-11-18T10:36:33.223Z,7.45
2022-11-18T10:39:51.211Z,6.35
2022-11-18T10:42:53.530Z,7.40
2022-11-18T10:45:55.575Z,5.18
2022-11-18T10:49:09.727Z,3.78
2022-11-18T10:52:14.398Z,5.00
2022-11-18T10:55:22.289Z,8.63
2022-11-18T10:58:24.967Z,7.65
2022-11-18T11:01:27.599Z,4.00
2022-11-18T11:04:31.093Z,5.82
2022-11-18T11:07:37.112Z,5.10
2022-11-18T11:10:39.188Z,7.47
2022-11-18T11:13:44.551Z,19.50
2022-11-18T11:16:56.587Z,9.38
2022-11-18T11:20:09.818Z,20.05
2022-11-18T11:23:17.724Z,8.23
2022-11-18T11:30:09.900Z,3.20
2022-11-18T11:33:31.267Z,2.95
2022-11-18T11:37:08.779Z,2.70
2022-11-18T11:40:32.599Z,3.80
2022-11-18T11:43:39.513Z,5.30
2022-11-18T11:47:07.306Z,9.73
2022-11-18T11:50:58.774Z,5.00
2022-11-18T11:54:32.873Z,5.68
2022-11-18T11:57:40.974Z,5.70
2022-11-18T12:00:55.550Z,6.93
2022-11-18T12:04:12.535Z,18.75
2022-11-18T12:07:22.998Z,15.20
2022-11-18T12:10:46.515Z,9.18
2022-11-18T12:14:05.301Z,6.43
2022-11-18T12:17:53.762Z,7.07
2022-11-18T12:20:55.898Z,6.05
2022-11-18T12:24:19.524Z,6.90
2022-11-18T12:27:30.436Z,8.77
2022-11-18T12:30:32.492Z,12.05
2022-11-18T12:33:44.117Z,27.63
2022-11-18T12:36:46.928Z,10.05
2022-11-18T12:40:00.232Z,7.47
2022-11-18T12:43:21.561Z,6.78
2022-11-18T12:46:35.590Z,8.95
2022-11-18T12:49:37.530Z,8.70
2022-11-18T12:52:39.550Z,9.93
2022-11-18T12:55:42.091Z,9.10
2022-11-18T12:58:50.124Z,11.90
2022-11-18T13:02:02.173Z,10.98
2022-11-18T13:05:12.865Z,12.17
2022-11-18T13:08:18.169Z,8.63
2022-11-18T13:11:39.866Z,9.50
2022-11-18T13:15:01.922Z,8.35
2022-11-18T13:18:15.217Z,8.27
2022-11-18T13:21:43.726Z,6.97
2022-11-18T13:24:51.445Z,7.95
2022-11-18T13:28:10.766Z,11.00
2022-11-18T13:31:50.243Z,8.52
2022-11-18T13:34:58.263Z,6.35
2022-11-18T13:38:03.512Z,6.82
2022-11-18T13:41:23.987Z,7.63
2022-11-18T13:44:28.621Z,6.90
2022-11-18T13:47:48.278Z,6.90
2022-11-18T13:50:55.232Z,7.72
2022-11-18T13:53:57.543Z,8.88
2022-11-18T13:56:59.570Z,9.77
2022-11-18T14:00:07.069Z,8.20
2022-11-18T14:03:50.981Z,9.27
2022-11-18T14:06:53.328Z,7.72
2022-11-18T14:09:58.891Z,18.63
2022-11-18T14:13:01.603Z,10.60
2022-11-18T14:19:31.412Z,35.38
2022-11-18T14:22:33.634Z,9.85
2022-11-18T14:25:36.775Z,12.68
2022-11-18T14:28:38.954Z,10.45
2022-11-18T14:31:42.336Z,8.25
2022-11-18T14:34:44.396Z,8.38
2022-11-18T14:37:46.358Z,8.20
2022-11-18T14:41:01.396Z,8.50
2022-11-18T14:44:04.164Z,8.45
2022-11-18T14:47:26.416Z,9.07
2022-11-18T14:50:28.508Z,9.07
2022-11-18T14:53:30.489Z,13.13
2022-11-18T14:56:34.150Z,12.70
2022-11-18T14:59:36.091Z,12.23
2022-11-18T15:02:38.296Z,10.98
2022-11-18T15:05:40.900Z,11.93
2022-11-18T15:08:44.899Z,16.23
2022-11-18T15:11:46.913Z,14.85
2022-11-18T15:14:48.984Z,9.52
2022-11-18T15:17:53.790Z,16.27
2022-11-18T15:20:56.204Z,26.45
2022-11-18T15:23:58.318Z,15.75
2022-11-18T15:27:05.146Z,10.00
2022-11-18T15:30:08.047Z,10.95
2022-11-18T15:33:10.211Z,13.63
2022-11-18T15:36:14.482Z,17.23
2022-11-18T15:39:17.119Z,18.33
2022-11-18T15:42:23.149Z,14.68
2022-11-18T15:45:25.576Z,15.27
2022-11-18T15:48:27.867Z,15.30
2022-11-18T15:51:30.509Z,13.75
2022-11-18T15:54:32.499Z,8.70
2022-11-18T15:57:34.518Z,9.52
2022-11-18T16:00:39.295Z,10.13
2022-11-18T16:03:41.596Z,10.32
2022-11-18T16:06:43.881Z,8.10
2022-11-18T16:10:05.069Z,9.18
2022-11-18T16:13:07.085Z,8.85
2022-11-18T16:16:18.018Z,8.32
2022-11-18T16:19:22.518Z,8.65
2022-11-18T16:22:24.522Z,8.90
2022-11-18T16:25:28.087Z,9.38
2022-11-18T16:28:30.959Z,9.88
2022-11-18T16:31:40.082Z,10.02
2022-11-18T16:34:42.167Z,10.50
2022-11-18T16:37:44.171Z,13.73
2022-11-18T16:40:46.193Z,13.40
2022-11-18T16:43:49.824Z,8.38
2022-11-18T16:46:57.483Z,10.88
2022-11-18T16:49:59.728Z,9.82
2022-11-18T16:53:01.679Z,12.98
2022-11-18T16:56:04.298Z,10.45
2022-11-18T17:05:13.472Z,16.73
2022-11-18T17:11:17.940Z,11.82
2022-11-18T17:14:20.225Z,9.82
2022-11-18T17:17:40.406Z,10.27
2022-11-18T17:20:42.701Z,11.25
2022-11-18T17:23:46.175Z,14.27
2022-11-18T17:26:48.918Z,10.57
2022-11-18T17:32:54.748Z,11.00
2022-11-18T17:36:07.884Z,11.30
2022-11-18T17:39:12.011Z,12.00
2022-11-18T17:42:13.983Z,13.85
2022-11-18T17:45:16.464Z,13.73
2022-11-18T17:48:19.558Z,12.73
2022-11-18T17:51:22.159Z,14.18
2022-11-18T17:57:26.580Z,13.07
2022-11-18T18:00:29.709Z,13.40
2022-11-18T18:03:31.928Z,13.93
2022-11-18T18:06:34.364Z,13.88
2022-11-18T18:09:38.330Z,12.63
2022-11-18T18:12:59.125Z,13.13
2022-11-18T18:16:02.060Z,12.10
2022-11-18T18:19:06.380Z,15.98
2022-11-18T18:22:08.402Z,11.63
2022-11-18T18:25:12.100Z,20.38
2022-11-18T18:28:14.622Z,14.15
2022-11-18T18:31:18.507Z,11.40
2022-11-18T18:34:22.037Z,13.05
2022-11-18T18:37:24.755Z,12.55
2022-11-18T18:43:29.055Z,12.82
2022-11-18T18:46:34.374Z,11.02
2022-11-18T18:49:37.329Z,11.75
2022-11-18T18:52:39.564Z,11.63
2022-11-18T18:55:45.047Z,11.52
2022-11-18T18:58:47.625Z,11.70
2022-11-18T19:01:50.461Z,11.50
2022-11-18T19:04:52.953Z,13.88
2022-11-18T19:07:55.426Z,49.78
2022-11-18T19:14:02.311Z,12.00
2022-11-18T19:17:10.208Z,12.35
2022-11-18T19:20:32.768Z,10.40
2022-11-18T19:23:35.694Z,10.57
2022-11-18T19:26:38.190Z,9.13
2022-11-18T19:32:42.993Z,10.27
2022-11-18T19:35:45.391Z,10.82
2022-11-18T19:38:50.476Z,9.90
2022-11-18T19:41:52.973Z,11.75
2022-11-18T19:48:00.624Z,11.83
2022-11-18T19:51:08.791Z,9.93
2022-11-18T19:54:11.397Z,10.63
2022-11-18T19:57:13.804Z,12.63
2022-11-18T20:00:17.101Z,13.55
2022-11-18T20:03:19.693Z,20.33
2022-11-18T20:09:25.706Z,12.23
2022-11-18T20:12:28.875Z,13.05
2022-11-18T20:15:31.180Z,17.83
2022-11-18T20:18:38.639Z,16.13
2022-11-18T20:21:43.675Z,16.25
2022-11-18T20:24:46.038Z,19.30
2022-11-18T20:27:48.383Z,18.13
2022-11-18T20:30:55.442Z,18.10
2022-11-18T20:33:58.035Z,15.90
2022-11-18T20:40:02.599Z,13.02
2022-11-18T20:43:14.428Z,14.25
2022-11-18T20:46:20.746Z,17.17
2022-11-18T20:49:23.862Z,21.92
2022-11-18T20:55:28.019Z,18.60
2022-11-18T20:58:32.451Z,18.27
2022-11-18T21:01:35.826Z,14.52
2022-11-18T21:04:37.848Z,15.27
2022-11-18T21:07:40.327Z,19.63
2022-11-18T21:14:03.039Z,17.77
2022-11-18T21:17:05.949Z,17.95
2022-11-18T21:20:28.556Z,18.70
2022-11-18T21:23:30.480Z,16.42
2022-11-18T21:26:34.174Z,17.42
2022-11-18T21:29:36.245Z,17.48
2022-11-18T21:32:38.674Z,16.95
2022-11-18T21:35:40.741Z,16.65
2022-11-18T21:38:42.786Z,16.65
2022-11-18T21:41:44.991Z,15.70
2022-11-18T21:44:46.986Z,24.70
2022-11-18T21:47:48.943Z,38.10
2022-11-18T21:51:01.202Z,41.53
2022-11-18T21:54:04.008Z,43.63
2022-11-18T21:57:05.952Z,34.58
2022-11-18T22:00:09.053Z,29.38
2022-11-18T22:03:11.068Z,22.52
2022-11-18T22:06:14.066Z,18.20
2022-11-18T22:09:16.564Z,23.00
2022-11-18T22:12:19.060Z,18.05
2022-11-18T22:15:21.118Z,15.07
2022-11-18T22:18:23.124Z,15.57
2022-11-18T22:21:26.596Z,15.88
2022-11-18T22:24:28.772Z,16.20
2022-11-18T22:27:30.979Z,10.90
2022-11-18T22:30:32.988Z,12.15
2022-11-18T22:33:35.059Z,12.20
2022-11-18T22:36:38.460Z,10.50
2022-11-18T22:39:40.607Z,10.13
2022-11-18T22:42:48.605Z,11.93
2022-11-18T22:45:57.981Z,10.20
2022-11-18T22:49:00.605Z,9.77
2022-11-18T22:55:04.842Z,8.30
2022-11-18T22:58:06.884Z,9.23
2022-11-18T23:01:11.781Z,9.02
2022-11-18T23:04:13.782Z,7.47
2022-11-18T23:07:15.832Z,8.13
2022-11-18T23:13:40.922Z,7.13
2022-11-18T23:16:43.377Z,7.20
2022-11-18T23:19:46.969Z,9.43
2022-11-18T23:22:49.105Z,7.25
2022-11-18T23:25:53.969Z,7.82
2022-11-18T23:28:56.537Z,7.95
2022-11-18T23:35:00.817Z,8.48
2022-11-18T23:38:02.832Z,5.63
2022-11-18T23:41:07.294Z,6.85
2022-11-18T23:44:11.690Z,6.93
2022-11-18T23:47:14.049Z,6.72
2022-11-18T23:50:16.207Z,6.57
2022-11-18T23:53:18.272Z,5.00
2022-11-18T23:56:22.164Z,7.13
2022-11-18T23:59:24.275Z,6.25
